createdAt,value
2022-11-22T00:01:05.507Z,99700.09
2022-11-22T00:03:08.697Z,99693.31
2022-11-22T00:05:11.935Z,99701.97
2022-11-22T00:07:14.683Z,99698.22
2022-11-22T00:09:17.377Z,99699.06
2022-11-22T00:11:20.175Z,99698.47
2022-11-22T00:13:22.812Z,99699.06
2022-11-22T00:15:25.529Z,99694.38
2022-11-22T00:17:28.222Z,99702.84
2022-11-22T00:19:31.170Z,99704.72
2022-11-22T00:21:34.028Z,99705.91
2022-11-22T00:23:36.706Z,99703.44
2022-11-22T00:25:39.474Z,99706.13
2022-11-22T00:27:42.162Z,99701.81
2022-11-22T00:29:45.039Z,99704.97
2022-11-22T00:31:47.681Z,99704.72
2022-11-22T00:33:50.401Z,99704.13
2022-11-22T00:35:52.950Z,99696.66
2022-11-22T00:37:55.569Z,99695.84
2022-11-22T00:39:58.223Z,99697.47
2022-11-22T00:42:00.906Z,99693.97
2022-11-22T00:44:03.523Z,99705.53
2022-11-22T00:46:06.182Z,99688.84
2022-11-22T00:48:08.720Z,99698.53
2022-11-22T00:50:11.480Z,99693.03
2022-11-22T00:52:14.604Z,99703.97
2022-11-22T00:54:17.170Z,99696.59
2022-11-22T00:56:19.758Z,99697.41
2022-11-22T00:58:22.715Z,99703.84
2022-11-22T01:00:25.414Z,99693.16
2022-11-22T01:02:28.103Z,99694.97
2022-11-22T01:04:30.746Z,99700.94
2022-11-22T01:06:33.658Z,99706.31
2022-11-22T01:08:36.302Z,99706.97
2022-11-22T01:10:39.173Z,99709.41
2022-11-22T01:12:41.894Z,99702.50
2022-11-22T01:14:44.522Z,99703.31
2022-11-22T01:16:47.221Z,99720.91
2022-11-22T01:18:49.744Z,99715.31
2022-11-22T01:20:52.368Z,99727.09
2022-11-22T01:22:55.009Z,99729.53
2022-11-22T01:24:57.599Z,99724.84
2022-11-22T01:27:00.158Z,99726.44
2022-11-22T01:29:03.587Z,99728.13
2022-11-22T01:31:06.255Z,99721.94
2022-11-22T01:33:09.869Z,99730.22
2022-11-22T01:35:12.474Z,99729.41
2022-11-22T01:37:15.607Z,99727.09
2022-11-22T01:39:18.363Z,99732.69
2022-11-22T01:41:21.059Z,99732.47
2022-11-22T01:43:26.852Z,99727.91
2022-11-22T01:45:32.440Z,99736.56
2022-11-22T01:47:35.078Z,99741.34
2022-11-22T01:49:48.726Z,99743.81
2022-11-22T01:51:55.716Z,99742.97
2022-11-22T01:54:04.380Z,99754.75
2022-11-22T01:56:12.423Z,99748.13
2022-11-22T01:58:18.552Z,99754.31
2022-11-22T02:00:21.278Z,99755.38
2022-11-22T02:02:24.923Z,99745.28
2022-11-22T02:04:28.558Z,99754.31
2022-11-22T02:06:44.856Z,99756.56
2022-11-22T02:09:11.947Z,99749.94
2022-11-22T02:11:15.810Z,99760.44
2022-11-22T02:13:20.959Z,99753.22
2022-11-22T02:15:43.508Z,99756.13
2022-11-22T02:17:46.140Z,99761.50
2022-11-22T02:19:50.898Z,99760.69
2022-11-22T02:21:59.057Z,99760.28
2022-11-22T02:24:10.454Z,99755.31
2022-11-22T02:26:14.623Z,99758.81
2022-11-22T02:28:17.333Z,99752.38
2022-11-22T02:30:20.166Z,99752.78
2022-11-22T02:32:22.839Z,99746.59
2022-11-22T02:34:25.461Z,99752.38
2022-11-22T02:36:28.242Z,99750.53
2022-11-22T02:38:35.253Z,99756.94
2022-11-22T02:40:45.669Z,99747.91
2022-11-22T02:42:54.506Z,99753.66
2022-11-22T02:44:57.414Z,99746.84
2022-11-22T02:47:00.000Z,99758.41
2022-11-22T02:49:02.659Z,99752.06
2022-11-22T02:51:05.211Z,99756.19
2022-11-22T02:53:09.014Z,99758.06
2022-11-22T02:55:11.754Z,99763.19
2022-11-22T02:57:15.556Z,99760.28
2022-11-22T02:59:18.271Z,99758.66
2022-11-22T03:01:20.922Z,99750.34
2022-11-22T03:03:23.493Z,99756.19
2022-11-22T03:05:26.196Z,99763.88
2022-11-22T03:07:28.937Z,99762.59
2022-11-22T03:09:32.647Z,99761.19
2022-11-22T03:11:35.414Z,99765.88
2022-11-22T03:13:38.039Z,99763.41
2022-11-22T03:15:40.709Z,99765.06
2022-11-22T03:17:43.427Z,99756.19
2022-11-22T03:19:46.101Z,99764.44
2022-11-22T03:21:48.780Z,99765.06
2022-11-22T03:23:51.356Z,99755.13
2022-11-22T03:25:53.942Z,99760.34
2022-11-22T03:27:56.765Z,99756.84
2022-11-22T03:29:59.458Z,99752.53
2022-11-22T03:32:02.246Z,99751.31
2022-11-22T03:34:05.013Z,99748.03
2022-11-22T03:36:07.666Z,99753.41
2022-11-22T03:38:10.358Z,99746.97
2022-11-22T03:40:14.064Z,99748.25
2022-11-22T03:42:21.468Z,99743.13
2022-11-22T03:44:24.902Z,99747.28
2022-11-22T03:46:27.575Z,99742.97
2022-11-22T03:48:30.496Z,99737.19
2022-11-22T03:50:33.128Z,99744.03
2022-11-22T03:52:35.696Z,99739.13
2022-11-22T03:54:38.591Z,99744.34
2022-11-22T03:56:41.211Z,99749.53
2022-11-22T03:58:43.890Z,99753.91
2022-11-22T04:00:46.527Z,99745.25
2022-11-22T04:02:49.193Z,99756.44
2022-11-22T04:04:51.874Z,99746.50
2022-11-22T04:06:54.468Z,99753.38
2022-11-22T04:08:57.304Z,99747.81
2022-11-22T04:10:59.905Z,99753.19
2022-11-22T04:13:02.507Z,99750.13
2022-11-22T04:15:08.487Z,99753.44
2022-11-22T04:17:14.481Z,99753.63
2022-11-22T04:19:17.194Z,99753.03
2022-11-22T04:21:35.089Z,99761.31
2022-11-22T04:23:37.932Z,99754.28
2022-11-22T04:25:42.905Z,99745.25
2022-11-22T04:27:45.479Z,99746.28
2022-11-22T04:29:48.011Z,99749.19
2022-11-22T04:32:09.882Z,99748.59
2022-11-22T04:34:12.572Z,99747.38
2022-11-22T04:36:21.801Z,99746.13
2022-11-22T04:38:27.315Z,99750.47
2022-11-22T04:40:29.971Z,99734.56
2022-11-22T04:42:51.076Z,99738.88
2022-11-22T04:44:53.725Z,99741.19
2022-11-22T04:46:56.508Z,99742.81
2022-11-22T04:48:59.164Z,99743.88
2022-11-22T04:51:20.859Z,99737.69
2022-11-22T04:53:23.612Z,99734.00
2022-11-22T04:55:27.308Z,99735.22
2022-11-22T04:57:30.114Z,99733.81
2022-11-22T04:59:32.825Z,99736.69
2022-11-22T05:01:35.601Z,99740.41
2022-11-22T05:03:38.289Z,99748.66
2022-11-22T05:05:43.200Z,99751.56
2022-11-22T05:07:45.839Z,99750.28
2022-11-22T05:09:48.533Z,99751.75
2022-11-22T05:11:51.521Z,99751.31
2022-11-22T05:13:54.099Z,99761.44
2022-11-22T05:15:57.852Z,99766.97
2022-11-22T05:18:00.529Z,99771.06
2022-11-22T05:20:03.253Z,99764.84
2022-11-22T05:22:05.988Z,99767.69
2022-11-22T05:24:08.851Z,99757.56
2022-11-22T05:26:11.917Z,99760.88
2022-11-22T05:28:14.608Z,99766.22
2022-11-22T05:30:17.207Z,99769.28
2022-11-22T05:32:19.800Z,99775.03
2022-11-22T05:34:22.390Z,99775.81
2022-11-22T05:36:25.602Z,99768.75
2022-11-22T05:38:28.205Z,99788.38
2022-11-22T05:40:30.859Z,99780.03
2022-11-22T05:42:34.681Z,99782.88
2022-11-22T05:44:37.457Z,99787.13
2022-11-22T05:46:40.040Z,99781.72
2022-11-22T05:48:44.896Z,99776.50
2022-11-22T05:50:47.769Z,99778.31
2022-11-22T05:52:50.414Z,99777.44
2022-11-22T05:54:52.976Z,99775.56
2022-11-22T05:56:56.009Z,99770.97
2022-11-22T05:58:58.803Z,99766.78
2022-11-22T06:01:06.443Z,99776.69
2022-11-22T06:03:09.202Z,99775.66
2022-11-22T06:05:12.322Z,99776.69
2022-11-22T06:07:15.118Z,99777.09
2022-11-22T06:09:17.763Z,99782.25
2022-11-22T06:11:23.515Z,99778.72
2022-11-22T06:13:26.481Z,99787.81
2022-11-22T06:15:30.577Z,99785.97
2022-11-22T06:17:33.226Z,99782.47
2022-11-22T06:19:35.954Z,99781.19
2022-11-22T06:21:38.973Z,99785.97
2022-11-22T06:23:41.645Z,99783.41
2022-11-22T06:25:44.367Z,99785.09
2022-11-22T06:27:47.055Z,99774.94
2022-11-22T06:29:49.688Z,99779.72
2022-11-22T06:31:52.296Z,99777.63
2022-11-22T06:33:57.170Z,99778.72
2022-11-22T06:36:04.541Z,99780.38
2022-11-22T06:38:07.281Z,99785.91
2022-11-22T06:40:12.010Z,99780.75
2022-11-22T06:42:15.846Z,99780.31
2022-11-22T06:44:18.562Z,99772.94
2022-11-22T06:46:24.064Z,99783.69
2022-11-22T06:48:29.836Z,99775.44
2022-11-22T06:50:32.494Z,99779.78
2022-11-22T06:52:35.355Z,99777.03
2022-11-22T06:54:38.592Z,99786.88
2022-11-22T06:56:41.687Z,99792.25
2022-11-22T06:58:45.340Z,99779.47
2022-11-22T07:00:47.978Z,99785.69
2022-11-22T07:02:50.710Z,99780.91
2022-11-22T07:05:23.281Z,99779.47
2022-11-22T07:07:16.118Z,99782.56
2022-11-22T07:09:18.800Z,99781.06
2022-11-22T07:11:24.536Z,99789.41
2022-11-22T07:13:27.364Z,99784.31
2022-11-22T07:15:29.891Z,99786.03
2022-11-22T07:17:32.563Z,99780.59
2022-11-22T07:19:35.156Z,99782.63
2022-11-22T07:21:37.900Z,99775.50
2022-11-22T07:23:43.493Z,99771.06
2022-11-22T07:25:49.540Z,99774.81
2022-11-22T07:27:55.458Z,99770.63
2022-11-22T07:29:58.098Z,99775.44
2022-11-22T07:32:00.641Z,99780.25
2022-11-22T07:34:03.425Z,99778.97
2022-11-22T07:36:11.558Z,99775.59
2022-11-22T07:38:14.222Z,99784.16
2022-11-22T07:40:17.234Z,99787.66
2022-11-22T07:42:25.251Z,99785.28
2022-11-22T07:44:28.702Z,99783.31
2022-11-22T07:46:33.226Z,99785.56
2022-11-22T07:48:36.003Z,99780.78
2022-11-22T07:50:38.654Z,99780.44
2022-11-22T07:52:41.715Z,99787.13
2022-11-22T07:54:44.433Z,99783.50
2022-11-22T07:56:47.137Z,99778.25
2022-11-22T07:58:49.726Z,99777.88
2022-11-22T08:00:52.398Z,99775.44
2022-11-22T08:02:55.528Z,99775.78
2022-11-22T08:04:58.097Z,99771.47
2022-11-22T08:07:00.946Z,99778.59
2022-11-22T08:09:04.115Z,99782.56
2022-11-22T08:11:07.577Z,99779.53
2022-11-22T08:13:10.501Z,99772.06
2022-11-22T08:15:15.428Z,99774.59
2022-11-22T08:17:18.524Z,99771.34
2022-11-22T08:19:21.529Z,99768.19
2022-11-22T08:21:24.531Z,99773.69
2022-11-22T08:23:27.414Z,99773.56
2022-11-22T08:25:30.513Z,99775.56
2022-11-22T08:27:33.375Z,99776.25
2022-11-22T08:29:39.424Z,99776.16
2022-11-22T08:31:42.585Z,99772.16
2022-11-22T08:33:46.038Z,99779.97
2022-11-22T08:35:50.795Z,99777.63
2022-11-22T08:37:58.064Z,99779.94
2022-11-22T08:40:01.076Z,99781.38
2022-11-22T08:42:04.059Z,99774.19
2022-11-22T08:44:07.337Z,99777.56
2022-11-22T08:46:11.027Z,99783.19
2022-11-22T08:48:17.678Z,99784.38
2022-11-22T08:50:24.477Z,99781.78
2022-11-22T08:52:27.290Z,99774.41
2022-11-22T08:54:33.647Z,99782.84
2022-11-22T08:56:40.141Z,99781.31
2022-11-22T08:58:43.504Z,99790.22
2022-11-22T09:00:46.393Z,99788.09
2022-11-22T09:02:49.037Z,99782.94
2022-11-22T09:04:51.605Z,99781.88
2022-11-22T09:11:40.276Z,99782.97
2022-11-22T09:13:43.028Z,99775.81
2022-11-22T09:15:45.776Z,99786.06
2022-11-22T09:17:48.520Z,99775.75
2022-11-22T09:19:51.214Z,99791.13
2022-11-22T09:21:53.869Z,99784.66
2022-11-22T09:23:56.657Z,99778.00
2022-11-22T09:26:04.847Z,99782.09
2022-11-22T09:28:07.469Z,99776.03
2022-11-22T09:30:11.338Z,99777.19
2022-11-22T09:32:13.979Z,99774.97
2022-11-22T09:34:16.738Z,99772.63
2022-11-22T09:36:22.068Z,99772.06
2022-11-22T09:38:24.734Z,99771.34
2022-11-22T09:40:29.383Z,99765.97
2022-11-22T09:43:08.388Z,99766.66
2022-11-22T09:45:25.703Z,99773.78
2022-11-22T09:47:46.826Z,99782.44
2022-11-22T09:50:22.043Z,99784.53
2022-11-22T09:52:24.965Z,99779.25
2022-11-22T09:54:35.607Z,99784.09
2022-11-22T09:56:39.804Z,99772.84
2022-11-22T09:59:19.747Z,99764.78
2022-11-22T10:01:39.297Z,99767.00
2022-11-22T10:03:50.216Z,99776.22
2022-11-22T10:05:56.603Z,99771.16
2022-11-22T10:08:20.704Z,99775.03
2022-11-22T10:10:32.674Z,99779.13
2022-11-22T10:13:07.276Z,99778.31
2022-11-22T10:15:47.521Z,99782.63
2022-11-22T10:17:55.163Z,99786.88
2022-11-22T10:20:19.645Z,99786.63
2022-11-22T10:22:30.848Z,99796.44
2022-11-22T10:24:33.763Z,99777.63
2022-11-22T10:26:39.492Z,99784.88
2022-11-22T10:28:52.637Z,99784.97
2022-11-22T10:31:10.747Z,99785.88
2022-11-22T10:33:20.457Z,99791.72
2022-11-22T10:35:40.474Z,99792.19
2022-11-22T10:38:09.365Z,99791.00
2022-11-22T10:40:46.870Z,99788.81
2022-11-22T10:43:00.168Z,99775.81
2022-11-22T10:45:33.805Z,99773.97
2022-11-22T10:47:55.893Z,99759.19
2022-11-22T10:50:10.274Z,99760.69
2022-11-22T10:52:31.556Z,99763.97
2022-11-22T10:54:52.488Z,99767.00
2022-11-22T10:57:22.898Z,99759.66
2022-11-22T10:59:37.164Z,99749.63
2022-11-22T11:01:45.719Z,99762.97
2022-11-22T11:03:51.581Z,99757.09
2022-11-22T11:06:21.663Z,99756.88
2022-11-22T11:09:02.819Z,99747.28
2022-11-22T11:11:02.083Z,99738.72
2022-11-22T11:13:26.277Z,99737.31
2022-11-22T11:16:11.035Z,99735.31
2022-11-22T11:18:43.633Z,99737.75
2022-11-22T11:20:47.989Z,99731.88
2022-11-22T11:23:13.564Z,99740.03
2022-11-22T11:25:40.869Z,99736.19
2022-11-22T11:27:43.720Z,99741.69
2022-11-22T11:30:03.798Z,99738.75
2022-11-22T11:32:09.475Z,99734.19
2022-11-22T11:34:24.561Z,99738.38
2022-11-22T11:36:28.000Z,99734.03
2022-11-22T11:38:42.905Z,99729.50
2022-11-22T11:40:46.185Z,99739.41
2022-11-22T11:42:48.883Z,99746.06
2022-11-22T11:44:51.727Z,99765.34
2022-11-22T11:46:54.702Z,99755.06
2022-11-22T11:49:11.567Z,99756.09
2022-11-22T11:51:22.668Z,99753.25
2022-11-22T11:53:26.799Z,99752.06
2022-11-22T11:55:37.050Z,99749.84
2022-11-22T11:57:44.705Z,99745.06
2022-11-22T11:59:50.399Z,99749.84
2022-11-22T12:01:55.695Z,99744.69
2022-11-22T12:04:03.233Z,99736.94
2022-11-22T12:06:13.652Z,99739.03
2022-11-22T12:08:32.529Z,99736.19
2022-11-22T12:10:37.656Z,99739.41
2022-11-22T12:12:49.303Z,99742.19
2022-11-22T12:15:11.321Z,99746.03
2022-11-22T12:17:28.226Z,99740.31
2022-11-22T12:19:42.943Z,99741.13
2022-11-22T12:22:35.533Z,99727.84
2022-11-22T12:25:03.157Z,99734.94
2022-11-22T12:27:12.169Z,99741.19
2022-11-22T12:29:16.219Z,99740.03
2022-11-22T12:31:37.133Z,99732.63
2022-11-22T12:33:45.996Z,99717.63
2022-11-22T12:35:50.061Z,99725.00
2022-11-22T12:38:09.255Z,99723.84
2022-11-22T12:40:23.762Z,99715.25
2022-11-22T12:42:35.646Z,99716.72
2022-11-22T12:44:40.015Z,99717.78
2022-11-22T12:46:52.042Z,99712.47
2022-11-22T12:49:13.663Z,99715.75
2022-11-22T12:51:18.725Z,99712.53
2022-11-22T12:53:30.928Z,99702.25
2022-11-22T12:55:52.571Z,99703.88
2022-11-22T12:58:03.820Z,99696.75
2022-11-22T13:00:15.380Z,99700.44
2022-11-22T13:02:36.926Z,99701.09
2022-11-22T13:04:50.892Z,99709.16
2022-11-22T13:07:11.382Z,99704.25
2022-11-22T13:09:33.618Z,99700.28
2022-11-22T13:11:45.339Z,99706.94
2022-11-22T13:13:52.901Z,99700.16
2022-11-22T13:15:58.870Z,99701.63
2022-11-22T13:18:01.851Z,99720.59
2022-11-22T13:20:18.449Z,99722.72
2022-11-22T13:22:29.819Z,99719.38
2022-11-22T13:24:57.226Z,99721.88
2022-11-22T13:27:11.809Z,99723.97
2022-11-22T13:29:28.619Z,99714.94
2022-11-22T13:31:33.464Z,99713.47
2022-11-22T13:33:43.945Z,99707.88
2022-11-22T13:35:46.798Z,99704.75
2022-11-22T13:37:57.421Z,99697.56
2022-11-22T13:40:29.951Z,99708.97
2022-11-22T13:42:32.492Z,99696.81
2022-11-22T13:44:39.594Z,99695.03
2022-11-22T13:46:56.681Z,99688.00
2022-11-22T13:49:36.874Z,99691.09
2022-11-22T13:51:54.441Z,99702.69
2022-11-22T13:54:35.939Z,99709.50
2022-11-22T13:56:41.455Z,99705.41
2022-11-22T13:59:01.965Z,99715.38
2022-11-22T14:01:04.712Z,99712.69
2022-11-22T14:03:16.437Z,99713.50
2022-11-22T14:05:25.773Z,99710.59
2022-11-22T14:07:35.597Z,99721.34
2022-11-22T14:09:53.848Z,99741.97
2022-11-22T14:12:11.540Z,99734.75
2022-11-22T14:14:58.484Z,99724.41
2022-11-22T14:17:14.269Z,99721.72
2022-11-22T14:19:51.154Z,99725.00
2022-11-22T14:22:32.556Z,99707.09
2022-11-22T14:24:56.716Z,99712.06
2022-11-22T14:27:20.171Z,99725.75
2022-11-22T14:29:53.677Z,99728.81
2022-11-22T14:32:04.086Z,99707.41
2022-11-22T14:34:23.232Z,99697.56
2022-11-22T14:36:25.964Z,99696.56
2022-11-22T14:38:31.748Z,99704.59
2022-11-22T14:40:40.648Z,99691.44
2022-11-22T14:42:47.259Z,99697.25
2022-11-22T14:44:52.188Z,99696.63
2022-11-22T14:47:02.965Z,99690.63
2022-11-22T14:49:13.462Z,99693.50
2022-11-22T14:51:32.441Z,99676.66
2022-11-22T14:53:46.428Z,99672.31
2022-11-22T14:55:52.761Z,99667.97
2022-11-22T14:58:03.893Z,99672.91
2022-11-22T15:00:10.949Z,99668.78
2022-11-22T15:02:46.783Z,99658.09
2022-11-22T15:09:09.898Z,99667.97
2022-11-22T15:09:12.942Z,99665.28
2022-11-22T15:10:02.718Z,99669.25
2022-11-22T15:12:11.975Z,99680.47
2022-11-22T15:14:55.229Z,99689.31
2022-11-22T15:59:26.184Z,99673.66
2022-11-22T16:01:29.789Z,99669.13
2022-11-22T16:03:40.175Z,99669.94
2022-11-22T16:06:09.914Z,99677.94
2022-11-22T16:08:06.775Z,99682.88
2022-11-22T16:10:27.187Z,99683.91
2022-11-22T16:12:37.230Z,99685.78
2022-11-22T16:14:46.848Z,99677.13
2022-11-22T16:16:49.609Z,99681.44
2022-11-22T16:18:53.760Z,99669.09
2022-11-22T16:21:18.786Z,99667.44
2022-11-22T16:23:27.208Z,99674.03
2022-11-22T16:25:34.586Z,99673.63
2022-11-22T16:27:37.658Z,99674.50
2022-11-22T16:29:42.838Z,99670.19
2022-11-22T16:31:45.759Z,99663.56
2022-11-22T16:33:49.156Z,99666.00
2022-11-22T16:35:56.671Z,99673.66
2022-11-22T16:37:59.947Z,99672.25
2022-11-22T16:40:02.705Z,99664.81
2022-11-22T16:42:06.304Z,99663.16
2022-11-22T16:44:14.639Z,99642.13
2022-11-22T16:46:17.595Z,99651.19
2022-11-22T16:48:33.487Z,99645.84
2022-11-22T16:50:40.568Z,99637.78
2022-11-22T16:52:46.117Z,99637.16
2022-11-22T16:54:48.880Z,99635.72
2022-11-22T16:56:51.656Z,99628.94
2022-11-22T16:58:57.444Z,99620.50
2022-11-22T17:01:01.159Z,99624.41
2022-11-22T17:03:04.591Z,99617.81
2022-11-22T17:05:08.273Z,99612.25
2022-11-22T17:07:12.306Z,99610.84
2022-11-22T17:09:14.975Z,99606.53
2022-11-22T17:11:29.996Z,99612.91
2022-11-22T17:13:32.752Z,99623.19
2022-11-22T17:15:36.889Z,99627.97
2022-11-22T17:17:39.697Z,99624.84
2022-11-22T17:19:53.355Z,99618.09
2022-11-22T17:21:56.509Z,99618.72
2022-11-22T17:24:01.531Z,99612.91
2022-11-22T17:26:05.118Z,99611.69
2022-11-22T17:28:08.652Z,99605.31
2022-11-22T17:30:12.234Z,99609.47
2022-11-22T17:32:15.291Z,99612.94
2022-11-22T17:34:18.369Z,99608.81
2022-11-22T17:36:29.690Z,99613.56
2022-11-22T17:38:32.405Z,99596.88
2022-11-22T17:40:35.035Z,99598.38
2022-11-22T17:42:41.160Z,99593.19
2022-11-22T17:44:44.716Z,99595.69
2022-11-22T17:46:47.612Z,99595.28
2022-11-22T17:48:55.294Z,99588.22
2022-11-22T17:50:59.115Z,99589.69
2022-11-22T17:53:02.398Z,99586.78
2022-11-22T17:55:08.437Z,99593.19
2022-11-22T17:57:13.659Z,99593.81
2022-11-22T17:59:16.379Z,99598.38
2022-11-22T18:01:21.642Z,99600.22
2022-11-22T18:03:24.345Z,99592.16
2022-11-22T18:05:27.538Z,99604.31
2022-11-22T18:07:30.313Z,99591.75
2022-11-22T18:09:34.850Z,99589.50
2022-11-22T18:11:38.164Z,99595.69
2022-11-22T18:13:40.848Z,99591.19
2022-11-22T18:15:43.590Z,99594.47
2022-11-22T18:17:46.507Z,99595.28
2022-11-22T18:19:49.251Z,99593.81
2022-11-22T18:21:52.003Z,99583.53
2022-11-22T18:23:54.630Z,99582.50
2022-11-22T18:26:17.040Z,99589.72
2022-11-22T18:28:23.529Z,99577.78
2022-11-22T18:30:26.699Z,99575.50
2022-11-22T18:32:29.319Z,99557.34
2022-11-22T18:34:32.555Z,99563.97
2022-11-22T18:36:54.753Z,99568.72
2022-11-22T18:38:57.869Z,99555.31
2022-11-22T18:41:01.802Z,99560.47
2022-11-22T18:43:04.501Z,99561.09
2022-11-22T18:45:08.260Z,99553.84
2022-11-22T18:47:11.027Z,99545.69
2022-11-22T18:49:13.742Z,99550.56
2022-11-22T18:51:16.649Z,99545.81
2022-11-22T18:53:19.327Z,99555.31
2022-11-22T18:55:22.081Z,99551.84
2022-11-22T18:57:24.739Z,99542.53
2022-11-22T18:59:27.510Z,99542.53
2022-11-22T19:01:30.238Z,99538.19
2022-11-22T19:03:33.000Z,99542.50
2022-11-22T19:05:40.165Z,99533.66
2022-11-22T19:07:42.866Z,99536.94
2022-11-22T19:09:45.705Z,99533.00
2022-11-22T19:11:48.436Z,99529.06
2022-11-22T19:13:51.185Z,99531.72
2022-11-22T19:15:53.821Z,99529.91
2022-11-22T19:17:56.488Z,99530.75
2022-11-22T19:19:59.240Z,99511.56
2022-11-22T19:22:03.046Z,99517.94
2022-11-22T19:24:06.119Z,99515.88
2022-11-22T19:26:14.394Z,99512.53
2022-11-22T19:28:17.071Z,99508.59
2022-11-22T19:30:19.728Z,99501.81
2022-11-22T19:32:22.584Z,99496.19
2022-11-22T19:34:25.205Z,99498.47
2022-11-22T19:36:33.405Z,99511.28
2022-11-22T19:38:36.664Z,99513.53
2022-11-22T19:40:41.292Z,99512.88
2022-11-22T19:42:43.872Z,99509.59
2022-11-22T19:44:46.411Z,99520.91
2022-11-22T19:46:48.975Z,99514.50
2022-11-22T19:48:53.041Z,99519.41
2022-11-22T19:50:56.285Z,99512.22
2022-11-22T19:52:59.023Z,99508.34
2022-11-22T19:55:01.583Z,99515.47
2022-11-22T19:57:04.564Z,99511.78
2022-11-22T19:59:10.704Z,99513.78
2022-11-22T20:01:14.551Z,99513.34
2022-11-22T20:03:17.281Z,99510.44
2022-11-22T20:05:20.278Z,99505.44
2022-11-22T20:07:22.894Z,99504.44
2022-11-22T20:09:25.988Z,99500.25
2022-11-22T20:11:28.598Z,99501.09
2022-11-22T20:13:35.591Z,99513.81
2022-11-22T20:15:38.172Z,99503.75
2022-11-22T20:17:41.102Z,99509.94
2022-11-22T20:19:43.733Z,99501.91
2022-11-22T20:21:49.617Z,99507.63
2022-11-22T20:23:53.216Z,99503.47
2022-11-22T20:26:04.628Z,99502.19
2022-11-22T20:28:07.949Z,99498.91
2022-11-22T20:30:11.497Z,99500.94
2022-11-22T20:32:14.255Z,99496.97
2022-11-22T20:34:16.970Z,99482.53
2022-11-22T20:36:22.391Z,99505.19
2022-11-22T20:38:25.135Z,99502.88
2022-11-22T20:40:27.989Z,99495.22
2022-11-22T20:42:35.129Z,99495.34
2022-11-22T20:44:38.224Z,99493.28
2022-11-22T20:46:41.376Z,99491.41
2022-11-22T20:48:46.310Z,99492.66
2022-11-22T20:50:52.306Z,99480.28
2022-11-22T20:52:55.041Z,99473.75
2022-11-22T20:55:03.382Z,99466.06
2022-11-22T20:57:07.639Z,99473.66
2022-11-22T20:59:10.432Z,99475.91
2022-11-22T21:01:16.534Z,99481.50
2022-11-22T21:03:19.524Z,99472.16
2022-11-22T21:05:22.073Z,99487.44
2022-11-22T21:07:25.883Z,99478.13
2022-11-22T21:09:28.505Z,99470.53
2022-11-22T21:11:32.249Z,99474.56
2022-11-22T21:13:35.514Z,99470.59
2022-11-22T21:15:38.229Z,99479.47
2022-11-22T21:18:02.065Z,99475.50
2022-11-22T21:20:04.175Z,99439.84
2022-11-22T21:22:07.120Z,99472.38
2022-11-22T21:24:12.719Z,99463.28
2022-11-22T21:26:15.358Z,99470.53
2022-11-22T21:28:17.981Z,99474.63
2022-11-22T21:30:20.809Z,99451.50
2022-11-22T21:32:23.400Z,99454.09
2022-11-22T21:34:26.136Z,99450.72
2022-11-22T21:36:28.759Z,99451.13
2022-11-22T21:38:33.315Z,99445.50
2022-11-22T21:40:35.897Z,99438.63
2022-11-22T21:42:38.629Z,99442.59
2022-11-22T21:44:41.425Z,99440.50
2022-11-22T21:46:44.149Z,99436.09
2022-11-22T21:48:49.816Z,99437.72
2022-11-22T21:50:54.690Z,99434.22
2022-11-22T21:52:57.291Z,99435.63
2022-11-22T21:55:00.196Z,99438.66
2022-11-22T21:57:03.197Z,99425.47
2022-11-22T21:59:06.003Z,99434.94
2022-11-22T22:01:14.141Z,99429.00
2022-11-22T22:03:18.171Z,99434.72
2022-11-22T22:05:21.146Z,99433.09
2022-11-22T22:07:50.626Z,99431.44
2022-11-22T22:09:46.492Z,99431.13
2022-11-22T22:11:49.242Z,99421.06
2022-11-22T22:13:55.551Z,99410.78
2022-11-22T22:16:00.078Z,99414.16
2022-11-22T22:18:03.705Z,99415.00
2022-11-22T22:20:07.030Z,99401.22
2022-11-22T22:22:09.732Z,99394.44
2022-11-22T22:24:12.534Z,99400.88
2022-11-22T22:26:17.347Z,99391.53
2022-11-22T22:28:19.949Z,99395.84
2022-11-22T22:30:23.328Z,99391.28
2022-11-22T22:32:27.349Z,99391.41
2022-11-22T22:34:30.018Z,99382.91
2022-11-22T22:36:32.704Z,99393.41
2022-11-22T22:38:35.530Z,99380.69
2022-11-22T22:40:38.103Z,99383.81
2022-11-22T22:42:40.740Z,99373.19
2022-11-22T22:44:43.313Z,99366.19
2022-11-22T22:46:45.923Z,99364.69
2022-11-22T22:48:49.643Z,99370.50
2022-11-22T22:50:52.306Z,99358.38
2022-11-22T22:52:54.917Z,99365.97
2022-11-22T22:54:57.545Z,99349.38
2022-11-22T22:57:00.656Z,99356.03
2022-11-22T22:59:05.354Z,99352.53
2022-11-22T23:01:11.591Z,99347.97
2022-11-22T23:03:14.622Z,99349.69
2022-11-22T23:05:17.359Z,99343.53
2022-11-22T23:07:19.972Z,99355.75
2022-11-22T23:09:22.759Z,99351.22
2022-11-22T23:11:47.343Z,99344.22
2022-11-22T23:13:49.902Z,99345.03
2022-11-22T23:15:58.438Z,99343.19
2022-11-22T23:18:01.498Z,99343.78
2022-11-22T23:20:04.444Z,99337.81
2022-11-22T23:22:07.099Z,99336.41
2022-11-22T23:24:10.040Z,99328.38
2022-11-22T23:26:13.051Z,99329.66
2022-11-22T23:28:15.691Z,99334.50
2022-11-22T23:30:18.538Z,99331.97
2022-11-22T23:32:21.123Z,99328.91
2022-11-22T23:34:23.751Z,99329.75
2022-11-22T23:36:26.544Z,99331.25
2022-11-22T23:38:29.169Z,99331.94
2022-11-22T23:40:31.780Z,99337.66
2022-11-22T23:42:34.411Z,99335.53
2022-11-22T23:44:37.078Z,99336.38
2022-11-22T23:46:39.704Z,99327.38
2022-11-22T23:48:43.689Z,99328.19
2022-11-22T23:50:46.274Z,99328.19
2022-11-22T23:52:55.861Z,99330.66
2022-11-22T23:54:58.500Z,99323.06
2022-11-22T23:57:01.091Z,99322.00
2022-11-22T23:59:07.631Z,99325.28
